DAL5299 KROC-KJFK
Flight info
| Callsign | DAL5299 |
|---|---|
| Flight time | N/A |
| Altitude | 31000 |
| Route | BEEPS Q140 YODAA IGN IGN1 |
| Aircraft | CRJ9/M-SDFGIRWY/S |
Departure
| Time | 2026-04-25 19:59 |
|---|---|
| Airport | Frederick Douglass Greater Rochester International Airport (KROC) |
Arrival
| Time | N/A |
|---|---|
| Airport | John F. Kennedy International Airport (KJFK) |
| Time | Latitude | Longitude | Altitude | Speed | Heading |
|---|---|---|---|---|---|
| 2026-04-25 19:31 | 43.12703 | -77.66725 | 559 ft | 0 kts | 141° |
| 2026-04-25 19:49 | 43.12703 | -77.66726 | 559 ft | 0 kts | 141° |
| 2026-04-25 19:52 | 43.12705 | -77.66727 | 559 ft | 1 kts | 141° |
| 2026-04-25 19:52 | 43.12712 | -77.66736 | 562 ft | 2 kts | 141° |
| 2026-04-25 19:53 | 43.12727 | -77.66746 | 560 ft | 2 kts | 193° |
| 2026-04-25 19:53 | 43.12735 | -77.66740 | 566 ft | 0 kts | 225° |
| 2026-04-25 19:53 | 43.12734 | -77.66741 | 566 ft | 0 kts | 227° |
| 2026-04-25 19:54 | 43.12733 | -77.66744 | 566 ft | 3 kts | 231° |
| 2026-04-25 19:54 | 43.12722 | -77.66771 | 560 ft | 2 kts | 251° |
| 2026-04-25 19:54 | 43.12719 | -77.66784 | 560 ft | 3 kts | 256° |
| 2026-04-25 19:54 | 43.12717 | -77.66813 | 561 ft | 6 kts | 271° |
| 2026-04-25 19:55 | 43.12712 | -77.66878 | 566 ft | 4 kts | 234° |
| 2026-04-25 19:55 | 43.12688 | -77.66905 | 562 ft | 5 kts | 212° |
| 2026-04-25 19:55 | 43.12662 | -77.66927 | 564 ft | 4 kts | 211° |
| 2026-04-25 19:55 | 43.12639 | -77.66946 | 565 ft | 4 kts | 211° |
| 2026-04-25 19:56 | 43.12621 | -77.66962 | 566 ft | 3 kts | 212° |
| 2026-04-25 19:56 | 43.12606 | -77.66975 | 564 ft | 3 kts | 212° |
| 2026-04-25 19:56 | 43.12590 | -77.66989 | 566 ft | 3 kts | 210° |
| 2026-04-25 19:56 | 43.12570 | -77.67003 | 568 ft | 6 kts | 201° |
| 2026-04-25 19:57 | 43.12529 | -77.67015 | 565 ft | 5 kts | 206° |
| 2026-04-25 19:57 | 43.12513 | -77.67042 | 566 ft | 2 kts | 252° |
| 2026-04-25 19:57 | 43.12511 | -77.67051 | 568 ft | 1 kts | 257° |
| 2026-04-25 19:57 | 43.12510 | -77.67063 | 568 ft | 4 kts | 262° |
| 2026-04-25 19:58 | 43.12511 | -77.67111 | 565 ft | 4 kts | 282° |
| 2026-04-25 19:58 | 43.12518 | -77.67148 | 568 ft | 5 kts | 285° |
| 2026-04-25 19:58 | 43.12519 | -77.67216 | 565 ft | 11 kts | 247° |
| 2026-04-25 19:58 | 43.12409 | -77.67326 | 562 ft | 42 kts | 211° |
| 2026-04-25 19:59 | 43.11930 | -77.67729 | 559 ft | 117 kts | 210° |
| 2026-04-25 19:59 | 43.11106 | -77.68438 | 675 ft | 157 kts | 209° |
| 2026-04-25 19:59 | 43.10083 | -77.69380 | 987 ft | 199 kts | 208° |
| 2026-04-25 19:59 | 43.08713 | -77.70017 | 1574 ft | 224 kts | 181° |
| 2026-04-25 20:00 | 43.07188 | -77.69756 | 2430 ft | 240 kts | 158° |
| 2026-04-25 20:00 | 43.06685 | -77.69435 | 2619 ft | 248 kts | 149° |
| 2026-04-25 20:00 | 43.04707 | -77.66518 | 4780 ft | 241 kts | 126° |
| 2026-04-25 20:00 | 43.03723 | -77.64530 | 5553 ft | 266 kts | 122° |
| 2026-04-25 20:01 | 43.01713 | -77.60073 | 7987 ft | 250 kts | 120° |
| 2026-04-25 20:01 | 43.00996 | -77.58014 | 9568 ft | 230 kts | 116° |
| 2026-04-25 20:01 | 43.00380 | -77.56036 | 10547 ft | 233 kts | 115° |
| 2026-04-25 20:02 | 42.99710 | -77.53896 | 10959 ft | 254 kts | 115° |
| 2026-04-25 20:02 | 42.98999 | -77.51612 | 11465 ft | 271 kts | 115° |
| 2026-04-25 20:02 | 42.98252 | -77.49196 | 11991 ft | 288 kts | 114° |
| 2026-04-25 20:02 | 42.97453 | -77.46607 | 12540 ft | 305 kts | 114° |
| 2026-04-25 20:03 | 42.96605 | -77.43874 | 13101 ft | 320 kts | 114° |
| 2026-04-25 20:03 | 42.95713 | -77.41007 | 13664 ft | 336 kts | 114° |
| 2026-04-25 20:03 | 42.94783 | -77.38015 | 14185 ft | 352 kts | 114° |
| 2026-04-25 20:03 | 42.93811 | -77.34910 | 14685 ft | 366 kts | 114° |
| 2026-04-25 20:04 | 42.92806 | -77.31715 | 15210 ft | 380 kts | 114° |
| 2026-04-25 20:04 | 42.91753 | -77.28381 | 15711 ft | 389 kts | 114° |
| 2026-04-25 20:04 | 42.90971 | -77.25914 | 16078 ft | 389 kts | 114° |
| 2026-04-25 20:04 | 42.89970 | -77.22759 | 16544 ft | 347 kts | 114° |
| 2026-04-25 20:05 | 43.12702 | -77.66724 | 559 ft | 0 kts | 141° |